Thursday, November 27, 2014, 2:10 PM EST
Back to Local

KPTW, Pottstown Limerick Airport

Location: Royersford, PA, United States Lat: 40.233
Local Time: 2:10 PM EST (19:10 GMT) Lon: -75.55
Time Zone: US/Eastern Elev: 291 ft

Show me the last for .
Show Decoded

2014-11-27 12:54 METAR KPTW 271754Z AUTO 32008KT 10SM BKN025 OVC060 02/M03 A3002 RMK AO2 SLP165
                 T00221028 10022 20006 58006 =
2014-11-27 11:54 METAR KPTW 271654Z AUTO 31007KT 10SM OVC023 02/M02 A3002 RMK AO2 SLP167
                 T00221022 =
2014-11-27 10:54 METAR KPTW 271554Z AUTO 33008KT 10SM OVC020 02/M02 A3004 RMK AO2 SLP172
                 T00171022 =
2014-11-27 09:54 METAR KPTW 271454Z AUTO 30007KT 10SM BKN017 BKN055 02/M02 A3004 RMK AO2 SLP172
                 T00171017 51010 =
2014-11-27 08:54 METAR KPTW 271354Z AUTO 30005KT 10SM OVC080 01/M02 A3002 RMK AO2 SLP167
                 T00111017 =
2014-11-27 08:40 METAR KPTW 271340Z AUTO 30005KT 10SM SCT030 OVC080 01/M02 A3002 RMK AO2
                 T00111017 =
2014-11-27 07:54 METAR KPTW 271254Z AUTO 29003KT 10SM OVC028 01/M02 A3001 RMK AO2 SLP162
                 T00061017 =
2014-11-27 07:40 METAR KPTW 271240Z AUTO 26003KT 10SM BKN028 OVC075 01/M02 A3001 RMK AO2
                 T00061017 =
2014-11-27 06:54 METAR KPTW 271154Z AUTO 29004KT 10SM OVC030 01/M01 A3000 RMK AO2 SLP159 60001
                 70108 T00061011 10011 20000 53006 =
2014-11-27 05:54 METAR KPTW 271054Z AUTO 30005KT 8SM OVC033 00/M01 A2998 RMK AO2 SNE42 SLP153
                 P0000 T00001006 =
2014-11-27 04:54 METAR KPTW 270954Z AUTO 31005KT 4SM -SN BR OVC041 00/M01 A2997 RMK AO2
                 UPB0859E03SNB03 SLP149 P0001 T00001006 =
2014-11-27 03:54 METAR KPTW 270854Z AUTO 28005KT 10SM OVC047 01/M01 A2998 RMK AO2 SLP153
                 T00061011 53015 =
2014-11-27 02:54 METAR KPTW 270754Z AUTO 29005KT 10SM BKN050 OVC065 01/M01 A2996 RMK AO2 SLP145
                 T00061011 =
2014-11-27 01:54 METAR KPTW 270654Z AUTO 29004KT 10SM FEW040 BKN050 OVC070 01/M01 A2995 RMK AO2
                 SLP142 T00061011 =
2014-11-27 00:54 METAR KPTW 270554Z AUTO 28004KT 10SM SCT045 OVC110 01/M01 A2994 RMK AO2 SLP138
                 60001 T00111011 10011 20000 51017 =
2014-11-26 23:54 METAR KPTW 270454Z AUTO 29005KT 10SM OVC095 01/M01 A2993 RMK AO2 SLP134
                 T00061006 400670000 =
2014-11-26 22:54 METAR KPTW 270354Z AUTO 30005KT 10SM OVC080 01/M01 A2990 RMK AO2 SLP125
                 T00111011 =
2014-11-26 21:54 METAR KPTW 270254Z AUTO VRB05KT 10SM OVC080 01/M01 A2989 RMK AO2 SLP121 60001
                 T00111006 56005 =
2014-11-26 20:54 METAR KPTW 270154Z AUTO 33005KT 10SM SCT048 OVC080 01/M01 A2989 RMK AO2
                 UPB0058E30B47E48SNE0058B30E47B48E49 SLP123 P0000 T00111006 =
2014-11-26 20:02 METAR KPTW 270102Z AUTO 33010KT 9SM UP SCT016 SCT023 OVC055 01/00 A2989 RMK AO2
                 UPB0058SNE0058 P0000 T00110000 =
2014-11-26 19:54 METAR KPTW 270054Z AUTO 33007KT 9SM -SN SCT016 BKN023 OVC048 01/00 A2989 RMK AO2
                 RAB30E34UPB34E47SNE30B47 SLP122 P0001 T00060000 =
2014-11-26 19:47 METAR KPTW 270047Z AUTO 32006KT 10SM -SN BKN016 OVC041 01/00 A2990 RMK AO2
                 RAB30E34UPB34E47SNE30B47 P0001 T00060000 =
2014-11-26 19:30 METAR KPTW 270030Z AUTO 31006KT 7SM -RA FEW006 FEW014 OVC035 01/00 A2990 RMK AO2
                 RAB30SNE30 P0001 T00060000 =
2014-11-26 18:54 METAR KPTW 262354Z AUTO 31007KT 5SM -SN BR FEW009 OVC025 01/00 A2990 RMK AO2
                 SLP126 P0005 60028 T00060000 10006 20006 50008 =
2014-11-26 17:54 METAR KPTW 262254Z AUTO 31009KT 5SM -SN BR FEW013 OVC020 01/00 A2990 RMK AO2
                 SLP125 P0004 T00060000 =
2014-11-26 17:02 METAR KPTW 262202Z AUTO 33009KT 5SM -SN BR FEW006 SCT011 OVC027 01/00 A2988 RMK
                 AO2 P0001 T00060000 =
2014-11-26 16:54 METAR KPTW 262154Z AUTO 32008KT 4SM -SN BR SCT006 BKN013 OVC023 01/00 A2988 RMK
                 AO2 SLP118 P0004 T00060000 =
2014-11-26 16:51 METAR KPTW 262151Z AUTO 33009KT 4SM -SN BR SCT006 BKN011 OVC023 01/00 A2988 RMK
                 AO2 P0004 =
2014-11-26 16:42 METAR KPTW 262142Z AUTO 33009KT 2 1/2SM -SN BR SCT006 BKN012 OVC020 01/M01 A2986
                 RMK AO2 P0004 T00061006 =
2014-11-26 16:20 METAR KPTW 262120Z AUTO 34010G17KT 2 1/2SM -SN BR BKN007 BKN012 OVC020 01/M01
                 A2986 RMK AO2 P0002 T00061006 =
2014-11-26 16:13 METAR KPTW 262113Z AUTO 34010KT 2 1/2SM -SN BR SCT007 BKN010 OVC020 01/M01 A2986
                 RMK AO2 P0001 T00061006 =
2014-11-26 15:54 METAR KPTW 262054Z AUTO 35011G18KT 3SM -SN BR BKN009 BKN013 OVC023 01/M01 A2986
                 RMK AO2 SLP112 P0003 60015 T00061006 55013 =
2014-11-26 15:51 METAR KPTW 262051Z AUTO 35009G18KT 3SM -SN BR BKN009 OVC023 01/M01 A2986 RMK AO2
                 P0003 =
2014-11-26 15:34 METAR KPTW 262034Z AUTO 01011G17KT 2 1/2SM -SN BR BKN009 OVC029 01/M01 A2985 RMK
                 AO2 P0002 T00061006 =
2014-11-26 15:26 METAR KPTW 262026Z AUTO 01010KT 3SM -SN BR SCT009 OVC029 01/M01 A2986 RMK AO2
                 P0002 T00061006 =
2014-11-26 15:14 METAR KPTW 262014Z AUTO 01009KT 2 1/2SM -SN BR SCT009 BKN028 OVC036 01/M01 A2987
                 RMK AO2 P0001 T00061006 =
2014-11-26 15:07 METAR KPTW 262007Z AUTO 36010G17KT 3SM -SN BR FEW009 OVC028 01/M01 A2989 RMK AO2
                 P0001 T00061006 =
2014-11-26 14:54 METAR KPTW 261954Z AUTO 02010KT 5SM -SN BR FEW007 SCT019 OVC032 01/M01 A2989 RMK
                 AO2 SLP121 P0003 T00061006 =
2014-11-26 14:44 METAR KPTW 261944Z AUTO 01009KT 8SM -SN SCT008 BKN019 OVC036 01/M01 A2990 RMK
                 AO2 P0003 T00061006 =
2014-11-26 14:24 METAR KPTW 261924Z AUTO 01009KT 6SM -SN BR FEW004 BKN008 OVC017 01/M01 A2990 RMK
                 AO2 P0002 T00061006 =
2014-11-26 14:17 METAR KPTW 261917Z AUTO 01007KT 3SM -SN BR SCT006 OVC015 01/M01 A2990 RMK AO2
                 P0002 T00061006 =

Support USWX by starting your Amazon purchase here.